createdAt,value
2019-05-09T00:00:17.635Z,77.65
2019-05-09T00:02:44.308Z,77.74
2019-05-09T00:05:10.244Z,78.09
2019-05-09T00:07:36.570Z,78.36
2019-05-09T00:10:04.060Z,78.01
2019-05-09T00:12:29.197Z,78.13
2019-05-09T00:14:55.495Z,78.08
2019-05-09T00:17:23.279Z,78.25
2019-05-09T00:19:48.122Z,78.32
2019-05-09T00:22:14.540Z,78.44
2019-05-09T00:24:40.857Z,78.30
2019-05-09T00:27:07.167Z,78.12
2019-05-09T00:29:33.577Z,78.36
2019-05-09T00:31:59.815Z,78.33
2019-05-09T00:34:26.140Z,78.73
2019-05-09T00:36:53.991Z,78.85
2019-05-09T00:39:18.786Z,78.90
2019-05-09T00:41:45.093Z,78.55
2019-05-09T00:44:13.750Z,78.44
2019-05-09T00:46:37.733Z,78.30
2019-05-09T00:49:05.051Z,78.66
2019-05-09T00:51:30.366Z,78.59
2019-05-09T00:53:56.686Z,78.97
2019-05-09T00:56:24.021Z,79.30
2019-05-09T00:58:49.327Z,79.79
2019-05-09T01:01:15.645Z,80.62
2019-05-09T01:03:43.234Z,81.25
2019-05-09T01:06:08.277Z,81.72
2019-05-09T01:08:34.588Z,81.72
2019-05-09T01:11:10.985Z,81.72
2019-05-09T01:13:27.222Z,81.52
2019-05-09T01:15:53.550Z,81.73
2019-05-09T01:18:19.853Z,82.05
2019-05-09T01:20:46.239Z,82.41
2019-05-09T01:23:14.235Z,82.84
2019-05-09T01:25:38.866Z,82.97
2019-05-09T01:28:05.213Z,83.44
2019-05-09T01:30:33.526Z,84.25
2019-05-09T01:32:57.848Z,84.28
2019-05-09T01:35:24.144Z,84.27
2019-05-09T01:37:50.497Z,84.45
2019-05-09T01:40:16.795Z,84.26
2019-05-09T01:42:43.305Z,84.46
2019-05-09T01:45:09.427Z,84.99
2019-05-09T01:47:35.732Z,85.31
2019-05-09T01:50:03.938Z,85.63
2019-05-09T01:52:28.368Z,85.88
2019-05-09T01:54:54.693Z,86.21
2019-05-09T01:57:23.120Z,86.57
2019-05-09T01:59:47.331Z,86.01
2019-05-09T02:02:14.305Z,85.96
2019-05-09T02:04:40.012Z,86.31
2019-05-09T02:07:06.341Z,86.43
2019-05-09T02:09:34.252Z,86.58
2019-05-09T02:11:58.962Z,86.88
2019-05-09T02:14:25.278Z,86.73
2019-05-09T02:16:53.599Z,86.73
2019-05-09T02:19:17.912Z,88.13
2019-05-09T02:21:44.247Z,88.37
2019-05-09T02:24:10.544Z,86.20
2019-05-09T02:26:36.872Z,86.11
2019-05-09T02:29:03.384Z,86.41
2019-05-09T02:31:29.502Z,86.67
2019-05-09T02:33:55.804Z,86.87
2019-05-09T02:36:22.139Z,86.95
2019-05-09T02:38:48.879Z,87.10
2019-05-09T02:41:14.746Z,87.31
2019-05-09T02:43:41.076Z,88.00
2019-05-09T02:46:09.850Z,88.30
2019-05-09T02:48:33.709Z,87.69
2019-05-09T02:51:00.539Z,87.63
2019-05-09T02:53:28.857Z,87.71
2019-05-09T02:55:52.669Z,87.66
2019-05-09T02:58:20.317Z,87.64
2019-05-09T03:00:45.284Z,87.39
2019-05-09T03:03:11.609Z,87.33
2019-05-09T03:05:38.484Z,87.80
2019-05-09T03:08:04.245Z,87.86
2019-05-09T03:10:30.562Z,87.39
2019-05-09T03:12:59.436Z,87.07
2019-05-09T03:15:23.204Z,86.87
2019-05-09T03:17:50.025Z,87.23
2019-05-09T03:20:18.143Z,87.07
2019-05-09T03:22:42.155Z,86.65
2019-05-09T03:25:09.221Z,86.55
2019-05-09T03:27:34.788Z,86.40
2019-05-09T03:30:01.108Z,86.61
2019-05-09T03:32:29.678Z,86.57
2019-05-09T03:34:53.728Z,86.48
2019-05-09T03:37:20.067Z,86.26
2019-05-09T03:39:47.836Z,86.28
2019-05-09T03:42:12.693Z,86.08
2019-05-09T03:44:39.053Z,85.88
2019-05-09T03:47:05.359Z,85.91
2019-05-09T03:49:31.687Z,85.89
2019-05-09T03:51:58.599Z,86.29
2019-05-09T03:54:24.324Z,86.58
2019-05-09T03:56:50.624Z,85.92
2019-05-09T03:59:17.612Z,85.20
2019-05-09T04:01:46.778Z,85.12
2019-05-09T04:04:09.578Z,85.36
2019-05-09T04:06:38.904Z,85.43
2019-05-09T04:09:02.296Z,86.39
2019-05-09T04:11:28.623Z,86.13
2019-05-09T04:13:54.937Z,85.66
2019-05-09T04:16:21.290Z,85.17
2019-05-09T04:18:48.043Z,85.24
2019-05-09T04:21:13.926Z,84.75
2019-05-09T04:23:40.259Z,84.42
2019-05-09T04:26:07.561Z,84.04
2019-05-09T04:28:32.891Z,83.88
2019-05-09T04:30:59.195Z,83.33
2019-05-09T04:33:27.797Z,83.11
2019-05-09T04:35:51.830Z,83.02
2019-05-09T04:38:18.140Z,81.99
2019-05-09T04:40:45.985Z,80.42
2019-05-09T04:43:16.849Z,79.11
2019-05-09T04:45:38.752Z,77.49
2019-05-09T04:48:03.455Z,75.79
2019-05-09T04:50:29.762Z,74.02
2019-05-09T04:52:58.020Z,73.26
2019-05-09T04:55:22.389Z,71.50
2019-05-09T04:57:48.696Z,70.54
2019-05-09T05:00:15.034Z,69.41
2019-05-09T05:02:41.354Z,68.64
2019-05-09T05:05:07.942Z,65.59
2019-05-09T05:07:33.988Z,60.99
2019-05-09T05:10:00.321Z,57.01
2019-05-09T05:12:27.752Z,57.14
2019-05-09T05:14:52.951Z,56.39
2019-05-09T05:17:19.270Z,56.08
2019-05-09T05:19:47.669Z,58.10
2019-05-09T05:22:11.909Z,55.75
2019-05-09T05:24:38.474Z,54.26
2019-05-09T05:27:04.537Z,52.34
2019-05-09T05:29:30.850Z,51.72
2019-05-09T05:31:58.065Z,49.79
2019-05-09T05:34:23.505Z,48.82
2019-05-09T05:36:49.813Z,48.75
2019-05-09T05:39:17.830Z,48.43
2019-05-09T05:41:42.441Z,49.70
2019-05-09T05:44:08.780Z,48.51
2019-05-09T05:46:35.087Z,48.60
2019-05-09T05:49:01.412Z,50.65
2019-05-09T05:51:27.853Z,51.11
2019-05-09T05:53:54.065Z,50.77
2019-05-09T05:56:20.388Z,49.66
2019-05-09T05:58:48.845Z,47.57
2019-05-09T06:01:13.030Z,46.89
2019-05-09T06:03:39.331Z,47.64
2019-05-09T06:06:05.641Z,49.31
2019-05-09T06:08:31.987Z,47.48
2019-05-09T06:10:58.306Z,45.70
2019-05-09T06:13:24.787Z,44.84
2019-05-09T06:15:51.106Z,45.73
2019-05-09T06:18:18.393Z,44.51
2019-05-09T06:20:45.846Z,45.66
2019-05-09T06:23:10.105Z,47.83
2019-05-09T06:25:38.757Z,48.19
2019-05-09T06:28:02.753Z,48.25
2019-05-09T06:30:29.096Z,48.56
2019-05-09T06:32:57.847Z,48.93
2019-05-09T06:35:21.721Z,49.78
2019-05-09T06:37:48.070Z,49.89
2019-05-09T06:40:14.387Z,50.18
2019-05-09T06:42:43.020Z,50.77
2019-05-09T06:45:07.725Z,52.06
2019-05-09T06:47:33.427Z,51.02
2019-05-09T06:49:59.741Z,51.64
2019-05-09T06:52:28.068Z,51.53
2019-05-09T06:54:52.416Z,51.37
2019-05-09T06:57:18.874Z,52.01
2019-05-09T06:59:45.062Z,52.08
2019-05-09T07:02:11.367Z,52.81
2019-05-09T07:04:38.138Z,52.73
2019-05-09T07:07:04.042Z,53.01
2019-05-09T07:09:30.376Z,53.48
2019-05-09T07:11:58.662Z,53.18
2019-05-09T07:14:28.622Z,52.38
2019-05-09T07:16:49.470Z,52.27
2019-05-09T07:19:17.490Z,52.44
2019-05-09T07:21:42.155Z,52.01
2019-05-09T07:24:08.530Z,51.97
2019-05-09T07:26:34.848Z,51.89
2019-05-09T07:29:01.173Z,51.29
2019-05-09T07:31:28.415Z,52.40
2019-05-09T07:33:54.270Z,51.77
2019-05-09T07:36:20.583Z,51.88
2019-05-09T07:38:47.771Z,52.16
2019-05-09T07:41:13.246Z,51.94
2019-05-09T07:43:39.559Z,51.91
2019-05-09T07:46:08.527Z,51.70
2019-05-09T07:48:32.266Z,51.47
2019-05-09T07:50:59.713Z,50.07
2019-05-09T07:53:24.905Z,48.77
2019-05-09T07:55:51.231Z,49.61
2019-05-09T07:58:18.695Z,50.42
2019-05-09T08:00:43.945Z,50.57
2019-05-09T08:03:13.214Z,50.14
2019-05-09T08:05:38.575Z,48.97
2019-05-09T08:08:02.944Z,49.51
2019-05-09T08:10:32.932Z,50.12
2019-05-09T08:12:55.594Z,50.76
2019-05-09T08:15:21.925Z,50.92
2019-05-09T08:17:48.912Z,50.73
2019-05-09T08:20:14.618Z,50.11
2019-05-09T08:22:46.379Z,49.73
2019-05-09T08:25:08.314Z,50.27
2019-05-09T08:27:33.616Z,49.98
2019-05-09T08:29:59.940Z,49.51
2019-05-09T08:32:28.606Z,49.61
2019-05-09T08:34:52.589Z,50.56
2019-05-09T08:37:18.918Z,49.71
2019-05-09T08:39:45.244Z,49.26
2019-05-09T08:42:11.565Z,48.36
2019-05-09T08:44:40.174Z,49.77
2019-05-09T08:47:04.222Z,49.19
2019-05-09T08:49:30.548Z,49.16
2019-05-09T08:52:10.213Z,48.62
2019-05-09T08:54:23.339Z,48.51
2019-05-09T08:56:49.671Z,48.20
2019-05-09T08:59:18.234Z,47.10
2019-05-09T09:02:09.983Z,47.49
2019-05-09T09:04:08.764Z,47.68
2019-05-09T09:06:35.093Z,47.23
2019-05-09T09:09:01.423Z,47.88
2019-05-09T09:11:28.142Z,48.44
2019-05-09T09:13:54.067Z,47.50
2019-05-09T09:16:22.545Z,47.74
2019-05-09T09:18:48.106Z,48.27
2019-05-09T09:21:13.056Z,48.55
2019-05-09T09:23:46.585Z,49.10
2019-05-09T09:26:07.826Z,49.48
2019-05-09T09:28:32.072Z,49.29
2019-05-09T09:30:59.104Z,49.25
2019-05-09T09:33:24.721Z,49.62
2019-05-09T09:35:51.043Z,49.34
2019-05-09T09:38:17.802Z,49.65
2019-05-09T09:40:43.697Z,49.49
2019-05-09T09:43:10.058Z,49.74
2019-05-09T09:45:37.803Z,49.51
2019-05-09T09:48:02.825Z,49.63
2019-05-09T09:50:29.138Z,49.12
2019-05-09T09:52:58.463Z,48.99
2019-05-09T09:55:21.794Z,49.36
2019-05-09T09:57:48.554Z,49.24
2019-05-09T10:00:14.562Z,50.07
2019-05-09T10:02:40.898Z,50.27
2019-05-09T10:05:07.720Z,50.29
2019-05-09T10:07:33.674Z,50.79
2019-05-09T10:10:00.019Z,51.13
2019-05-09T10:12:28.428Z,51.48
2019-05-09T10:14:52.645Z,51.16
2019-05-09T10:17:21.477Z,50.83
2019-05-09T10:19:48.032Z,50.95
2019-05-09T10:22:11.787Z,50.33
2019-05-09T10:24:38.123Z,49.99
2019-05-09T10:27:04.451Z,50.06
2019-05-09T10:29:30.806Z,50.43
2019-05-09T10:31:57.827Z,50.44
2019-05-09T10:34:23.511Z,50.27
2019-05-09T10:36:49.836Z,50.12
2019-05-09T10:39:18.590Z,49.26
2019-05-09T10:41:42.505Z,48.93
2019-05-09T10:44:08.837Z,49.06
2019-05-09T10:46:52.041Z,49.28
2019-05-09T10:49:01.487Z,49.69
2019-05-09T10:51:27.837Z,49.78
2019-05-09T10:53:54.146Z,49.77
2019-05-09T10:56:20.486Z,48.79
2019-05-09T10:58:48.234Z,48.19
2019-05-09T11:01:13.126Z,48.56
2019-05-09T11:03:39.456Z,47.65
2019-05-09T11:06:08.335Z,47.97
2019-05-09T11:08:32.114Z,47.97
2019-05-09T11:10:58.431Z,48.20
2019-05-09T11:13:24.764Z,48.16
2019-05-09T11:15:51.106Z,48.04
2019-05-09T11:18:18.580Z,48.23
2019-05-09T11:20:43.752Z,48.76
2019-05-09T11:23:10.061Z,48.97
2019-05-09T11:25:38.046Z,49.66
2019-05-09T11:28:11.170Z,49.04
2019-05-09T11:30:29.033Z,48.78
2019-05-09T11:32:55.356Z,49.38
2019-05-09T11:35:21.803Z,50.05
2019-05-09T11:37:48.172Z,50.02
2019-05-09T11:40:14.438Z,49.83
2019-05-09T11:42:40.783Z,49.45
2019-05-09T11:45:07.765Z,49.87
2019-05-09T11:47:45.211Z,50.25
2019-05-09T11:49:59.872Z,50.29
2019-05-09T11:52:28.626Z,50.52
2019-05-09T11:54:52.529Z,49.80
2019-05-09T11:57:19.262Z,50.18
2019-05-09T11:59:45.179Z,52.60
2019-05-09T12:02:11.513Z,52.80
2019-05-09T12:04:38.071Z,52.28
2019-05-09T12:07:04.169Z,53.75
2019-05-09T12:09:30.507Z,54.16
2019-05-09T12:11:59.089Z,53.05
2019-05-09T12:14:23.167Z,54.19
2019-05-09T12:16:49.488Z,56.32
2019-05-09T12:19:17.965Z,57.44
2019-05-09T12:21:47.562Z,56.36
2019-05-09T12:24:09.065Z,57.90
2019-05-09T12:26:34.823Z,59.04
2019-05-09T12:29:01.166Z,60.73
2019-05-09T12:31:28.761Z,59.96
2019-05-09T12:33:53.812Z,59.54
2019-05-09T12:36:20.100Z,59.13
2019-05-09T12:38:49.695Z,57.72
2019-05-09T12:41:12.738Z,57.20
2019-05-09T12:43:39.097Z,58.08
2019-05-09T12:46:08.466Z,59.05
2019-05-09T12:48:31.765Z,57.64
2019-05-09T12:50:58.567Z,57.31
2019-05-09T12:53:24.370Z,58.28
2019-05-09T12:55:50.695Z,57.40
2019-05-09T12:58:17.783Z,57.76
2019-05-09T13:00:43.372Z,59.74
2019-05-09T13:03:09.693Z,61.46
2019-05-09T13:05:38.736Z,62.16
2019-05-09T13:08:02.388Z,61.46
2019-05-09T13:10:28.716Z,61.63
2019-05-09T13:12:55.057Z,60.87
2019-05-09T13:15:21.482Z,61.07
2019-05-09T13:17:48.078Z,61.01
2019-05-09T13:20:14.108Z,61.28
2019-05-09T13:22:40.413Z,61.25
2019-05-09T13:25:06.737Z,60.43
2019-05-09T13:27:33.059Z,60.66
2019-05-09T13:29:59.361Z,60.42
2019-05-09T13:32:27.851Z,59.08
2019-05-09T13:34:52.006Z,57.89
2019-05-09T13:37:19.010Z,57.37
2019-05-09T13:39:44.642Z,57.91
2019-05-09T13:42:10.988Z,56.81
2019-05-09T13:44:41.351Z,55.80
2019-05-09T13:47:03.707Z,56.31
2019-05-09T13:49:29.996Z,56.60
2019-05-09T13:52:01.331Z,56.46
2019-05-09T13:54:22.605Z,55.76
2019-05-09T13:56:56.624Z,56.24
2019-05-09T13:59:15.238Z,56.33
2019-05-09T14:01:41.570Z,55.92
2019-05-09T14:04:08.207Z,55.38
2019-05-09T14:06:34.205Z,56.00
2019-05-09T14:09:00.547Z,56.56
2019-05-09T14:11:29.144Z,56.58
2019-05-09T14:13:53.201Z,57.55
2019-05-09T14:16:22.258Z,58.42
2019-05-09T14:18:48.363Z,58.58
2019-05-09T14:21:12.168Z,58.59
2019-05-09T14:23:48.395Z,59.41
2019-05-09T14:26:04.837Z,59.88
2019-05-09T14:28:31.153Z,59.94
2019-05-09T14:30:59.448Z,61.05
2019-05-09T14:33:23.789Z,60.98
2019-05-09T14:35:50.123Z,61.47
2019-05-09T14:38:18.488Z,62.04
2019-05-09T14:40:42.759Z,61.96
2019-05-09T14:43:09.760Z,61.96
2019-05-09T14:45:35.387Z,62.60
2019-05-09T14:48:01.735Z,63.23
2019-05-09T14:50:28.552Z,64.06
2019-05-09T14:52:54.355Z,64.88
2019-05-09T14:55:20.671Z,64.87
2019-05-09T14:57:47.990Z,66.58
2019-05-09T15:00:13.370Z,67.62
2019-05-09T15:02:39.683Z,67.35
2019-05-09T15:05:09.160Z,67.85
2019-05-09T15:07:32.342Z,68.67
2019-05-09T15:09:59.946Z,70.81
2019-05-09T15:12:25.005Z,73.04
2019-05-09T15:14:51.304Z,74.38
2019-05-09T15:17:18.468Z,73.97
2019-05-09T15:19:56.551Z,74.49
2019-05-09T15:22:10.301Z,75.94
2019-05-09T15:24:38.836Z,75.51
2019-05-09T15:27:03.002Z,77.55
2019-05-09T15:29:29.325Z,77.31
2019-05-09T15:32:03.234Z,77.22
2019-05-09T15:34:22.075Z,77.99
2019-05-09T15:36:48.474Z,79.17
2019-05-09T15:39:14.656Z,81.50
2019-05-09T15:41:40.975Z,83.69
2019-05-09T15:44:08.264Z,83.30
2019-05-09T15:46:33.879Z,86.18
2019-05-09T15:49:00.173Z,89.90
2019-05-09T15:51:27.977Z,93.48
2019-05-09T15:53:52.807Z,96.20
2019-05-09T15:56:19.142Z,97.10
2019-05-09T15:58:45.461Z,98.20
2019-05-09T16:01:11.823Z,99.17
2019-05-09T16:03:38.351Z,99.54
2019-05-09T16:06:04.499Z,100.00
2019-05-09T16:08:30.835Z,100.00
2019-05-09T16:10:58.116Z,100.00
2019-05-09T16:13:23.471Z,100.00
2019-05-09T16:15:49.784Z,100.00
2019-05-09T16:18:18.208Z,100.00
2019-05-09T16:20:42.453Z,100.00
2019-05-09T16:23:08.758Z,100.00
2019-05-09T16:25:35.094Z,100.00
2019-05-09T16:28:01.486Z,100.00
2019-05-09T16:30:27.800Z,100.00
2019-05-09T16:32:54.136Z,100.00
2019-05-09T16:35:20.447Z,100.00
2019-05-09T16:37:58.382Z,100.00
2019-05-09T16:40:13.122Z,100.00
2019-05-09T16:42:39.438Z,100.00
2019-05-09T16:45:07.900Z,100.00
2019-05-09T16:47:32.189Z,100.00
2019-05-09T16:49:58.582Z,100.00
2019-05-09T16:52:24.920Z,100.00
2019-05-09T16:54:51.260Z,100.00
2019-05-09T16:57:18.190Z,100.00
2019-05-09T16:59:43.918Z,100.00
2019-05-09T17:02:18.754Z,100.00
2019-05-09T17:04:38.668Z,100.00
2019-05-09T17:07:02.953Z,100.00
2019-05-09T17:09:30.319Z,100.00
2019-05-09T17:11:57.745Z,100.00
2019-05-09T17:14:22.999Z,100.00
2019-05-09T17:16:52.622Z,100.00
2019-05-09T17:19:19.159Z,100.00
2019-05-09T17:21:42.125Z,100.00
2019-05-09T17:24:08.582Z,100.00
2019-05-09T17:26:34.891Z,100.00
2019-05-09T17:29:01.232Z,100.00
2019-05-09T17:31:27.687Z,100.00
2019-05-09T17:33:53.936Z,100.00
2019-05-09T17:36:21.525Z,100.00
2019-05-09T17:38:47.829Z,100.00
2019-05-09T17:41:12.945Z,100.00
2019-05-09T17:43:39.302Z,100.00
2019-05-09T17:46:07.645Z,100.00
2019-05-09T17:48:32.064Z,100.00
2019-05-09T17:50:58.385Z,100.00
2019-05-09T17:53:24.849Z,100.00
2019-05-09T17:55:51.242Z,100.00
2019-05-09T17:58:29.128Z,100.00
2019-05-09T18:00:43.943Z,100.00
2019-05-09T18:03:10.263Z,100.00
2019-05-09T18:05:38.873Z,100.00
2019-05-09T18:08:02.934Z,100.00
2019-05-09T18:10:29.317Z,100.00
2019-05-09T18:12:55.627Z,100.00
2019-05-09T18:15:22.130Z,100.00
2019-05-09T18:17:48.461Z,100.00
2019-05-09T18:20:14.778Z,100.00
2019-05-09T18:22:41.115Z,100.00
2019-05-09T18:25:08.371Z,100.00
2019-05-09T18:27:33.775Z,100.00
2019-05-09T18:30:00.288Z,100.00
2019-05-09T18:32:27.580Z,100.00
2019-05-09T18:34:54.007Z,100.00
2019-05-09T18:37:21.017Z,100.00
2019-05-09T18:39:48.458Z,100.00
2019-05-09T18:42:14.367Z,100.00
2019-05-09T18:44:40.685Z,100.00
2019-05-09T18:47:07.844Z,100.00
2019-05-09T18:49:33.327Z,100.00
2019-05-09T18:52:03.918Z,100.00
2019-05-09T18:54:26.036Z,100.00
2019-05-09T18:56:52.347Z,100.00
2019-05-09T18:59:18.678Z,100.00
2019-05-09T19:01:45.005Z,100.00
2019-05-09T19:04:11.343Z,100.00
2019-05-09T19:06:39.858Z,100.00
2019-05-09T19:09:03.992Z,100.00
2019-05-09T19:11:30.400Z,100.00
2019-05-09T19:13:56.646Z,100.00
2019-05-09T19:16:22.957Z,100.00
2019-05-09T19:18:49.440Z,100.00
2019-05-09T19:21:15.650Z,100.00
2019-05-09T19:23:42.107Z,100.00
2019-05-09T19:26:08.482Z,100.00
2019-05-09T19:28:34.756Z,100.00
2019-05-09T19:31:01.062Z,100.00
2019-05-09T19:33:27.438Z,100.00
2019-05-09T19:35:53.864Z,100.00
2019-05-09T19:38:20.092Z,100.00
2019-05-09T19:40:46.450Z,100.00
2019-05-09T19:43:12.788Z,100.00
2019-05-09T19:45:39.137Z,100.00
2019-05-09T19:48:05.449Z,100.00
2019-05-09T19:50:31.794Z,100.00
2019-05-09T19:52:58.111Z,100.00
2019-05-09T19:55:24.426Z,100.00
2019-05-09T19:57:50.770Z,100.00
2019-05-09T20:00:17.109Z,100.00
2019-05-09T20:02:43.442Z,100.00
2019-05-09T20:05:09.750Z,100.00
2019-05-09T20:07:36.084Z,100.00
2019-05-09T20:10:02.421Z,100.00
2019-05-09T20:12:28.744Z,100.00
2019-05-09T20:14:55.085Z,100.00
2019-05-09T20:17:21.402Z,100.00
2019-05-09T20:19:47.735Z,100.00
2019-05-09T20:22:14.047Z,100.00
2019-05-09T20:24:40.466Z,100.00
2019-05-09T20:27:06.788Z,100.00
2019-05-09T20:29:33.094Z,100.00
2019-05-09T20:31:59.426Z,100.00
2019-05-09T20:34:25.765Z,100.00
2019-05-09T20:36:52.074Z,100.00
2019-05-09T20:39:18.421Z,100.00
2019-05-09T20:41:44.733Z,100.00
2019-05-09T20:44:11.060Z,100.00
2019-05-09T20:46:37.366Z,100.00
2019-05-09T20:49:03.718Z,100.00
2019-05-09T20:51:30.008Z,100.00
2019-05-09T20:53:56.326Z,100.00
2019-05-09T20:56:22.659Z,100.00
2019-05-09T20:58:48.977Z,100.00
2019-05-09T21:01:15.312Z,100.00
2019-05-09T21:03:41.618Z,100.00
2019-05-09T21:06:07.963Z,100.00
2019-05-09T21:08:34.278Z,100.00
2019-05-09T21:11:00.609Z,100.00
2019-05-09T21:13:27.043Z,100.00
2019-05-09T21:15:53.350Z,100.00
2019-05-09T21:18:19.778Z,100.00
2019-05-09T21:20:46.004Z,100.00
2019-05-09T21:23:23.859Z,100.00
2019-05-09T21:25:38.646Z,100.00
2019-05-09T21:28:04.973Z,100.00
2019-05-09T21:30:31.310Z,100.00
2019-05-09T21:32:57.595Z,100.00
2019-05-09T21:35:23.922Z,100.00
2019-05-09T21:37:50.231Z,100.00
2019-05-09T21:40:16.642Z,100.00
2019-05-09T21:42:43.012Z,100.00
2019-05-09T21:45:09.319Z,100.00
2019-05-09T21:47:35.650Z,100.00
2019-05-09T21:50:01.989Z,100.00
2019-05-09T21:52:28.294Z,100.00
2019-05-09T21:54:54.636Z,100.00
2019-05-09T21:57:20.945Z,100.00
2019-05-09T21:59:47.293Z,100.00
2019-05-09T22:02:13.604Z,100.00
2019-05-09T22:04:39.934Z,100.00
2019-05-09T22:07:06.245Z,100.00
2019-05-09T22:09:32.604Z,100.00
2019-05-09T22:11:58.985Z,100.00
2019-05-09T22:14:25.300Z,100.00
2019-05-09T22:16:51.631Z,100.00
2019-05-09T22:19:17.933Z,100.00
2019-05-09T22:21:44.307Z,100.00
2019-05-09T22:24:10.613Z,100.00
2019-05-09T22:26:36.951Z,100.00
2019-05-09T22:29:03.250Z,100.00
2019-05-09T22:31:29.565Z,100.00
2019-05-09T22:33:55.898Z,100.00
2019-05-09T22:36:22.207Z,100.00
2019-05-09T22:38:48.536Z,100.00
2019-05-09T22:41:14.849Z,100.00
2019-05-09T22:43:41.187Z,100.00
2019-05-09T22:46:07.490Z,100.00
2019-05-09T22:48:33.829Z,100.00
2019-05-09T22:51:00.162Z,100.00
2019-05-09T22:53:26.466Z,100.00
2019-05-09T22:55:52.796Z,100.00
2019-05-09T22:58:19.112Z,100.00
2019-05-09T23:00:45.444Z,100.00
2019-05-09T23:03:11.778Z,100.00
2019-05-09T23:05:38.080Z,100.00
2019-05-09T23:08:04.410Z,100.00
2019-05-09T23:10:30.742Z,100.00
2019-05-09T23:12:57.050Z,100.00
2019-05-09T23:15:23.380Z,100.00
2019-05-09T23:17:49.693Z,100.00
2019-05-09T23:20:16.024Z,100.00
2019-05-09T23:22:42.326Z,100.00
2019-05-09T23:25:08.648Z,100.00
2019-05-09T23:27:34.958Z,100.00
2019-05-09T23:30:01.274Z,100.00
2019-05-09T23:32:27.607Z,100.00
2019-05-09T23:34:53.924Z,100.00
2019-05-09T23:37:20.272Z,100.00
2019-05-09T23:39:46.617Z,100.00
2019-05-09T23:42:12.942Z,100.00
2019-05-09T23:44:39.247Z,100.00
2019-05-09T23:47:05.553Z,100.00
2019-05-09T23:49:31.863Z,100.00
2019-05-09T23:51:58.194Z,100.00
2019-05-09T23:54:24.515Z,100.00
2019-05-09T23:56:50.841Z,100.00
2019-05-09T23:59:17.215Z,100.00
